sensor_id;sensor_type;location;lat;lon;timestamp;temperature;humidity
16505;HTU21D;8365;51.030;4.696;2023-04-29T00:00:04;11.90;118.99
16505;HTU21D;8365;51.030;4.696;2023-04-29T00:02:39;11.81;118.99
16505;HTU21D;8365;51.030;4.696;2023-04-29T00:05:10;11.79;118.99
16505;HTU21D;8365;51.030;4.696;2023-04-29T00:07:40;11.71;118.99
16505;HTU21D;8365;51.030;4.696;2023-04-29T00:10:12;11.79;118.99
16505;HTU21D;8365;51.030;4.696;2023-04-29T00:12:44;11.77;118.99
16505;HTU21D;8365;51.030;4.696;2023-04-29T00:15:14;11.63;118.99
16505;HTU21D;8365;51.030;4.696;2023-04-29T00:17:45;11.43;118.99
16505;HTU21D;8365;51.030;4.696;2023-04-29T00:20:17;11.39;118.99
16505;HTU21D;8365;51.030;4.696;2023-04-29T00:22:48;11.48;118.99
16505;HTU21D;8365;51.030;4.696;2023-04-29T00:25:18;11.44;118.99
16505;HTU21D;8365;51.030;4.696;2023-04-29T00:27:49;11.55;118.99
16505;HTU21D;8365;51.030;4.696;2023-04-29T00:30:20;11.52;118.99
16505;HTU21D;8365;51.030;4.696;2023-04-29T00:32:53;11.45;118.99
16505;HTU21D;8365;51.030;4.696;2023-04-29T00:35:24;11.53;118.99
16505;HTU21D;8365;51.030;4.696;2023-04-29T00:37:55;11.36;118.99
16505;HTU21D;8365;51.030;4.696;2023-04-29T00:40:27;11.49;118.99
16505;HTU21D;8365;51.030;4.696;2023-04-29T00:42:57;11.44;118.99
16505;HTU21D;8365;51.030;4.696;2023-04-29T00:45:31;11.33;118.99
16505;HTU21D;8365;51.030;4.696;2023-04-29T00:48:01;11.14;118.99
16505;HTU21D;8365;51.030;4.696;2023-04-29T00:50:32;11.27;118.99
16505;HTU21D;8365;51.030;4.696;2023-04-29T00:53:03;11.33;118.99
16505;HTU21D;8365;51.030;4.696;2023-04-29T00:55:34;11.30;118.99
16505;HTU21D;8365;51.030;4.696;2023-04-29T00:58:05;11.48;118.99
16505;HTU21D;8365;51.030;4.696;2023-04-29T01:00:36;11.43;118.99
16505;HTU21D;8365;51.030;4.696;2023-04-29T01:03:07;11.37;118.99
16505;HTU21D;8365;51.030;4.696;2023-04-29T01:05:38;11.31;118.99
16505;HTU21D;8365;51.030;4.696;2023-04-29T01:12:07;11.24;118.99
16505;HTU21D;8365;51.030;4.696;2023-04-29T01:14:42;11.29;118.99
16505;HTU21D;8365;51.030;4.696;2023-04-29T01:17:21;11.24;118.99
16505;HTU21D;8365;51.030;4.696;2023-04-29T01:19:58;11.39;118.99
16505;HTU21D;8365;51.030;4.696;2023-04-29T01:22:30;11.32;118.99
16505;HTU21D;8365;51.030;4.696;2023-04-29T01:25:00;11.23;118.99
16505;HTU21D;8365;51.030;4.696;2023-04-29T01:27:37;11.30;118.99
16505;HTU21D;8365;51.030;4.696;2023-04-29T01:32:52;11.45;118.99
16505;HTU21D;8365;51.030;4.696;2023-04-29T01:41:22;11.62;118.99
16505;HTU21D;8365;51.030;4.696;2023-04-29T01:43:57;11.52;118.99
16505;HTU21D;8365;51.030;4.696;2023-04-29T01:46:29;11.37;118.99
16505;HTU21D;8365;51.030;4.696;2023-04-29T01:49:00;11.47;118.99
16505;HTU21D;8365;51.030;4.696;2023-04-29T01:51:31;11.48;118.99
16505;HTU21D;8365;51.030;4.696;2023-04-29T01:54:03;11.26;118.99
16505;HTU21D;8365;51.030;4.696;2023-04-29T01:56:36;11.40;118.99
16505;HTU21D;8365;51.030;4.696;2023-04-29T01:59:08;11.34;118.99
16505;HTU21D;8365;51.030;4.696;2023-04-29T02:01:39;11.40;118.99
16505;HTU21D;8365;51.030;4.696;2023-04-29T02:04:10;11.41;118.99
16505;HTU21D;8365;51.030;4.696;2023-04-29T02:06:43;11.48;118.99
16505;HTU21D;8365;51.030;4.696;2023-04-29T02:09:13;11.45;118.99
16505;HTU21D;8365;51.030;4.696;2023-04-29T02:11:44;11.41;118.99
16505;HTU21D;8365;51.030;4.696;2023-04-29T02:14:14;11.13;118.99
16505;HTU21D;8365;51.030;4.696;2023-04-29T02:16:45;11.16;118.99
16505;HTU21D;8365;51.030;4.696;2023-04-29T02:19:16;11.03;118.99
16505;HTU21D;8365;51.030;4.696;2023-04-29T02:21:46;11.26;118.99
16505;HTU21D;8365;51.030;4.696;2023-04-29T02:24:19;11.29;118.99
16505;HTU21D;8365;51.030;4.696;2023-04-29T02:26:49;11.38;118.99
16505;HTU21D;8365;51.030;4.696;2023-04-29T02:29:20;11.53;118.99
16505;HTU21D;8365;51.030;4.696;2023-04-29T02:31:50;11.63;118.99
16505;HTU21D;8365;51.030;4.696;2023-04-29T02:34:21;11.63;118.99
16505;HTU21D;8365;51.030;4.696;2023-04-29T02:36:52;11.38;118.99
16505;HTU21D;8365;51.030;4.696;2023-04-29T02:39:23;11.15;118.99
16505;HTU21D;8365;51.030;4.696;2023-04-29T02:41:54;11.36;118.99
16505;HTU21D;8365;51.030;4.696;2023-04-29T02:44:25;11.14;118.99
16505;HTU21D;8365;51.030;4.696;2023-04-29T02:46:57;11.13;118.99
16505;HTU21D;8365;51.030;4.696;2023-04-29T02:49:27;11.39;118.99
16505;HTU21D;8365;51.030;4.696;2023-04-29T02:51:58;11.32;118.99
16505;HTU21D;8365;51.030;4.696;2023-04-29T02:54:29;11.29;118.99
16505;HTU21D;8365;51.030;4.696;2023-04-29T02:57:02;11.28;118.99
16505;HTU21D;8365;51.030;4.696;2023-04-29T02:59:32;11.38;118.99
16505;HTU21D;8365;51.030;4.696;2023-04-29T03:02:03;11.47;118.99
16505;HTU21D;8365;51.030;4.696;2023-04-29T03:04:33;11.52;118.99
16505;HTU21D;8365;51.030;4.696;2023-04-29T03:07:04;11.59;118.99
16505;HTU21D;8365;51.030;4.696;2023-04-29T03:09:34;11.72;118.99
16505;HTU21D;8365;51.030;4.696;2023-04-29T03:12:07;11.82;118.99
16505;HTU21D;8365;51.030;4.696;2023-04-29T03:14:38;11.94;118.99
16505;HTU21D;8365;51.030;4.696;2023-04-29T03:17:08;11.98;118.99
16505;HTU21D;8365;51.030;4.696;2023-04-29T03:19:39;11.97;118.99
16505;HTU21D;8365;51.030;4.696;2023-04-29T03:22:09;11.60;118.99
16505;HTU21D;8365;51.030;4.696;2023-04-29T03:24:41;11.68;118.99
16505;HTU21D;8365;51.030;4.696;2023-04-29T03:27:12;11.29;118.99
16505;HTU21D;8365;51.030;4.696;2023-04-29T03:29:43;11.36;118.99
16505;HTU21D;8365;51.030;4.696;2023-04-29T03:32:13;11.22;118.99
16505;HTU21D;8365;51.030;4.696;2023-04-29T03:34:44;11.27;118.99
16505;HTU21D;8365;51.030;4.696;2023-04-29T03:37:14;11.14;118.99
16505;HTU21D;8365;51.030;4.696;2023-04-29T03:39:46;11.22;118.99
16505;HTU21D;8365;51.030;4.696;2023-04-29T03:42:16;11.33;118.99
16505;HTU21D;8365;51.030;4.696;2023-04-29T03:44:47;11.47;118.99
16505;HTU21D;8365;51.030;4.696;2023-04-29T03:47:17;11.36;118.99
16505;HTU21D;8365;51.030;4.696;2023-04-29T03:49:49;11.44;118.99
16505;HTU21D;8365;51.030;4.696;2023-04-29T03:52:20;11.46;118.99
16505;HTU21D;8365;51.030;4.696;2023-04-29T03:54:50;11.56;118.99
16505;HTU21D;8365;51.030;4.696;2023-04-29T03:57:23;11.61;118.99
16505;HTU21D;8365;51.030;4.696;2023-04-29T03:59:54;11.59;118.99
16505;HTU21D;8365;51.030;4.696;2023-04-29T04:02:26;11.57;118.99
16505;HTU21D;8365;51.030;4.696;2023-04-29T04:04:58;11.44;118.99
16505;HTU21D;8365;51.030;4.696;2023-04-29T04:07:30;11.44;118.99
16505;HTU21D;8365;51.030;4.696;2023-04-29T04:10:01;11.59;118.99
16505;HTU21D;8365;51.030;4.696;2023-04-29T04:12:31;11.63;118.99
16505;HTU21D;8365;51.030;4.696;2023-04-29T04:15:05;11.60;118.99
16505;HTU21D;8365;51.030;4.696;2023-04-29T04:17:36;11.61;118.99
16505;HTU21D;8365;51.030;4.696;2023-04-29T04:20:07;11.74;118.99
16505;HTU21D;8365;51.030;4.696;2023-04-29T04:22:38;11.54;118.99
16505;HTU21D;8365;51.030;4.696;2023-04-29T04:25:08;11.62;118.99
16505;HTU21D;8365;51.030;4.696;2023-04-29T04:27:39;11.73;118.99
16505;HTU21D;8365;51.030;4.696;2023-04-29T04:30:10;11.72;118.99
16505;HTU21D;8365;51.030;4.696;2023-04-29T04:32:41;11.86;118.99
16505;HTU21D;8365;51.030;4.696;2023-04-29T04:35:11;11.58;118.99
16505;HTU21D;8365;51.030;4.696;2023-04-29T04:37:42;11.57;118.99
16505;HTU21D;8365;51.030;4.696;2023-04-29T04:40:12;11.72;118.99
16505;HTU21D;8365;51.030;4.696;2023-04-29T04:42:45;11.76;118.99
16505;HTU21D;8365;51.030;4.696;2023-04-29T04:45:16;11.61;118.99
16505;HTU21D;8365;51.030;4.696;2023-04-29T04:47:46;11.59;118.99
16505;HTU21D;8365;51.030;4.696;2023-04-29T04:50:17;11.78;118.99
16505;HTU21D;8365;51.030;4.696;2023-04-29T04:52:48;11.70;118.99
16505;HTU21D;8365;51.030;4.696;2023-04-29T04:55:18;11.64;118.99
16505;HTU21D;8365;51.030;4.696;2023-04-29T04:57:49;11.63;118.99
16505;HTU21D;8365;51.030;4.696;2023-04-29T05:00:24;11.63;118.99
16505;HTU21D;8365;51.030;4.696;2023-04-29T05:02:55;11.54;118.99
16505;HTU21D;8365;51.030;4.696;2023-04-29T05:05:25;11.56;118.99
16505;HTU21D;8365;51.030;4.696;2023-04-29T05:07:56;11.39;118.99
16505;HTU21D;8365;51.030;4.696;2023-04-29T05:10:26;11.56;118.99
16505;HTU21D;8365;51.030;4.696;2023-04-29T05:12:57;11.58;118.99
16505;HTU21D;8365;51.030;4.696;2023-04-29T05:15:27;11.46;118.99
16505;HTU21D;8365;51.030;4.696;2023-04-29T05:17:58;11.55;118.99
16505;HTU21D;8365;51.030;4.696;2023-04-29T05:20:30;11.40;118.99
16505;HTU21D;8365;51.030;4.696;2023-04-29T05:23:01;11.55;118.99
16505;HTU21D;8365;51.030;4.696;2023-04-29T05:25:31;11.68;118.99
16505;HTU21D;8365;51.030;4.696;2023-04-29T05:28:02;11.64;118.99
16505;HTU21D;8365;51.030;4.696;2023-04-29T05:30:33;11.64;118.99
16505;HTU21D;8365;51.030;4.696;2023-04-29T05:33:04;11.51;118.99
16505;HTU21D;8365;51.030;4.696;2023-04-29T05:35:34;11.70;118.99
16505;HTU21D;8365;51.030;4.696;2023-04-29T05:38:05;11.71;118.99
16505;HTU21D;8365;51.030;4.696;2023-04-29T05:40:36;11.46;118.99
16505;HTU21D;8365;51.030;4.696;2023-04-29T05:43:06;11.58;118.99
16505;HTU21D;8365;51.030;4.696;2023-04-29T05:45:38;11.67;118.99
16505;HTU21D;8365;51.030;4.696;2023-04-29T05:48:08;11.76;118.99
16505;HTU21D;8365;51.030;4.696;2023-04-29T05:50:41;11.77;118.99
16505;HTU21D;8365;51.030;4.696;2023-04-29T05:53:11;11.59;118.99
16505;HTU21D;8365;51.030;4.696;2023-04-29T05:55:42;11.66;118.99
16505;HTU21D;8365;51.030;4.696;2023-04-29T05:58:14;11.68;118.99
16505;HTU21D;8365;51.030;4.696;2023-04-29T06:00:47;11.57;118.99
16505;HTU21D;8365;51.030;4.696;2023-04-29T06:03:18;11.78;118.99
16505;HTU21D;8365;51.030;4.696;2023-04-29T06:05:49;11.66;118.99
16505;HTU21D;8365;51.030;4.696;2023-04-29T06:08:19;11.73;118.99
16505;HTU21D;8365;51.030;4.696;2023-04-29T06:10:50;11.44;118.99
16505;HTU21D;8365;51.030;4.696;2023-04-29T06:13:23;11.61;118.99
16505;HTU21D;8365;51.030;4.696;2023-04-29T06:15:54;11.75;118.99
16505;HTU21D;8365;51.030;4.696;2023-04-29T06:18:25;11.70;118.99
16505;HTU21D;8365;51.030;4.696;2023-04-29T06:20:57;11.79;118.99
16505;HTU21D;8365;51.030;4.696;2023-04-29T06:23:27;11.78;118.99
16505;HTU21D;8365;51.030;4.696;2023-04-29T06:26:00;11.74;118.99
16505;HTU21D;8365;51.030;4.696;2023-04-29T06:28:32;11.71;118.99
16505;HTU21D;8365;51.030;4.696;2023-04-29T06:31:02;11.68;118.99
16505;HTU21D;8365;51.030;4.696;2023-04-29T06:33:33;11.83;118.99
16505;HTU21D;8365;51.030;4.696;2023-04-29T06:36:04;11.99;118.99
16505;HTU21D;8365;51.030;4.696;2023-04-29T06:38:34;11.91;118.99
16505;HTU21D;8365;51.030;4.696;2023-04-29T06:41:05;12.02;118.99
16505;HTU21D;8365;51.030;4.696;2023-04-29T06:43:35;11.84;118.99
16505;HTU21D;8365;51.030;4.696;2023-04-29T06:46:06;11.92;118.99
16505;HTU21D;8365;51.030;4.696;2023-04-29T06:48:37;11.98;118.99
16505;HTU21D;8365;51.030;4.696;2023-04-29T06:51:09;12.04;118.99
16505;HTU21D;8365;51.030;4.696;2023-04-29T06:53:39;11.98;118.98
16505;HTU21D;8365;51.030;4.696;2023-04-29T06:56:10;12.14;118.82
16505;HTU21D;8365;51.030;4.696;2023-04-29T06:58:41;12.11;118.93
16505;HTU21D;8365;51.030;4.696;2023-04-29T07:01:11;12.26;118.41
16505;HTU21D;8365;51.030;4.696;2023-04-29T07:03:42;12.07;117.70
16505;HTU21D;8365;51.030;4.696;2023-04-29T07:06:12;12.16;117.47
16505;HTU21D;8365;51.030;4.696;2023-04-29T07:08:43;12.26;117.00
16505;HTU21D;8365;51.030;4.696;2023-04-29T07:11:14;12.31;116.59
16505;HTU21D;8365;51.030;4.696;2023-04-29T07:13:44;12.41;115.69
16505;HTU21D;8365;51.030;4.696;2023-04-29T07:16:16;12.19;116.89
16505;HTU21D;8365;51.030;4.696;2023-04-29T07:18:47;11.98;116.76
16505;HTU21D;8365;51.030;4.696;2023-04-29T07:21:20;12.10;116.40
16505;HTU21D;8365;51.030;4.696;2023-04-29T07:23:51;12.05;116.10
16505;HTU21D;8365;51.030;4.696;2023-04-29T07:26:21;12.18;115.54
16505;HTU21D;8365;51.030;4.696;2023-04-29T07:28:52;12.37;116.04
16505;HTU21D;8365;51.030;4.696;2023-04-29T07:31:23;12.34;115.62
16505;HTU21D;8365;51.030;4.696;2023-04-29T07:33:54;12.36;115.67
16505;HTU21D;8365;51.030;4.696;2023-04-29T07:36:24;12.49;114.70
16505;HTU21D;8365;51.030;4.696;2023-04-29T07:38:55;12.46;113.60
16505;HTU21D;8365;51.030;4.696;2023-04-29T07:41:26;12.40;114.33
16505;HTU21D;8365;51.030;4.696;2023-04-29T07:43:57;12.35;114.86
16505;HTU21D;8365;51.030;4.696;2023-04-29T07:46:29;12.70;114.26
16505;HTU21D;8365;51.030;4.696;2023-04-29T07:49:00;12.71;114.73
16505;HTU21D;8365;51.030;4.696;2023-04-29T07:51:34;12.59;113.48
16505;HTU21D;8365;51.030;4.696;2023-04-29T07:54:05;12.79;113.87
16505;HTU21D;8365;51.030;4.696;2023-04-29T07:56:35;13.02;112.03
16505;HTU21D;8365;51.030;4.696;2023-04-29T07:59:07;12.91;112.61
16505;HTU21D;8365;51.030;4.696;2023-04-29T08:01:39;12.96;113.06
16505;HTU21D;8365;51.030;4.696;2023-04-29T08:04:10;13.14;110.99
16505;HTU21D;8365;51.030;4.696;2023-04-29T08:06:42;12.95;111.49
16505;HTU21D;8365;51.030;4.696;2023-04-29T08:09:12;12.61;112.77
16505;HTU21D;8365;51.030;4.696;2023-04-29T08:11:43;12.77;111.60
16505;HTU21D;8365;51.030;4.696;2023-04-29T08:14:16;12.93;112.37
16505;HTU21D;8365;51.030;4.696;2023-04-29T08:16:46;13.11;111.20
16505;HTU21D;8365;51.030;4.696;2023-04-29T08:19:17;12.95;111.33
16505;HTU21D;8365;51.030;4.696;2023-04-29T08:21:49;12.89;112.23
16505;HTU21D;8365;51.030;4.696;2023-04-29T08:24:22;12.97;110.55
16505;HTU21D;8365;51.030;4.696;2023-04-29T08:26:52;12.81;111.42
16505;HTU21D;8365;51.030;4.696;2023-04-29T08:29:25;13.09;110.66
16505;HTU21D;8365;51.030;4.696;2023-04-29T08:31:56;13.15;110.96
16505;HTU21D;8365;51.030;4.696;2023-04-29T08:34:29;13.10;111.73
16505;HTU21D;8365;51.030;4.696;2023-04-29T08:37:04;13.04;109.07
16505;HTU21D;8365;51.030;4.696;2023-04-29T08:39:34;13.33;108.43
16505;HTU21D;8365;51.030;4.696;2023-04-29T08:42:09;13.18;109.93
16505;HTU21D;8365;51.030;4.696;2023-04-29T08:44:39;13.30;108.74
16505;HTU21D;8365;51.030;4.696;2023-04-29T08:47:10;13.31;110.36
16505;HTU21D;8365;51.030;4.696;2023-04-29T08:49:43;13.59;107.91
16505;HTU21D;8365;51.030;4.696;2023-04-29T08:52:13;13.37;107.66
16505;HTU21D;8365;51.030;4.696;2023-04-29T08:54:44;13.19;109.81
16505;HTU21D;8365;51.030;4.696;2023-04-29T08:57:14;13.58;107.70
16505;HTU21D;8365;51.030;4.696;2023-04-29T08:59:45;13.82;107.15
16505;HTU21D;8365;51.030;4.696;2023-04-29T09:02:17;14.03;106.60
16505;HTU21D;8365;51.030;4.696;2023-04-29T09:05:04;14.06;105.70
16505;HTU21D;8365;51.030;4.696;2023-04-29T09:07:38;14.24;105.32
16505;HTU21D;8365;51.030;4.696;2023-04-29T09:10:11;14.55;102.45
16505;HTU21D;8365;51.030;4.696;2023-04-29T09:12:42;14.71;101.83
16505;HTU21D;8365;51.030;4.696;2023-04-29T09:15:12;14.79;100.98
16505;HTU21D;8365;51.030;4.696;2023-04-29T09:17:44;15.01;99.51
16505;HTU21D;8365;51.030;4.696;2023-04-29T09:22:51;15.34;97.37
16505;HTU21D;8365;51.030;4.696;2023-04-29T09:25:22;15.09;99.40
16505;HTU21D;8365;51.030;4.696;2023-04-29T09:27:55;15.61;97.89
16505;HTU21D;8365;51.030;4.696;2023-04-29T09:30:26;15.77;96.55
16505;HTU21D;8365;51.030;4.696;2023-04-29T09:33:08;16.31;94.94
16505;HTU21D;8365;51.030;4.696;2023-04-29T09:35:39;16.52;93.02
16505;HTU21D;8365;51.030;4.696;2023-04-29T09:38:14;16.58;92.04
16505;HTU21D;8365;51.030;4.696;2023-04-29T09:40:44;16.74;89.86
16505;HTU21D;8365;51.030;4.696;2023-04-29T09:43:16;16.51;91.36
16505;HTU21D;8365;51.030;4.696;2023-04-29T09:45:50;16.87;89.60
16505;HTU21D;8365;51.030;4.696;2023-04-29T09:48:21;16.93;89.34
16505;HTU21D;8365;51.030;4.696;2023-04-29T09:51:00;17.20;89.15
16505;HTU21D;8365;51.030;4.696;2023-04-29T09:53:33;17.30;89.41
16505;HTU21D;8365;51.030;4.696;2023-04-29T09:56:08;16.88;88.70
16505;HTU21D;8365;51.030;4.696;2023-04-29T09:58:38;17.31;86.86
16505;HTU21D;8365;51.030;4.696;2023-04-29T10:01:09;17.05;87.73
16505;HTU21D;8365;51.030;4.696;2023-04-29T10:03:42;17.47;86.76
16505;HTU21D;8365;51.030;4.696;2023-04-29T10:06:16;17.00;86.50
16505;HTU21D;8365;51.030;4.696;2023-04-29T10:08:50;17.02;88.12
16505;HTU21D;8365;51.030;4.696;2023-04-29T10:11:22;16.91;87.12
16505;HTU21D;8365;51.030;4.696;2023-04-29T10:13:55;17.08;88.05
16505;HTU21D;8365;51.030;4.696;2023-04-29T10:16:30;17.11;86.77
16505;HTU21D;8365;51.030;4.696;2023-04-29T10:19:06;16.51;89.44
16505;HTU21D;8365;51.030;4.696;2023-04-29T10:21:40;16.79;88.57
16505;HTU21D;8365;51.030;4.696;2023-04-29T10:24:12;16.86;88.57
16505;HTU21D;8365;51.030;4.696;2023-04-29T10:26:45;16.84;88.45
16505;HTU21D;8365;51.030;4.696;2023-04-29T10:29:19;16.94;87.38
16505;HTU21D;8365;51.030;4.696;2023-04-29T10:31:54;16.84;87.81
16505;HTU21D;8365;51.030;4.696;2023-04-29T10:34:30;17.08;87.54
16505;HTU21D;8365;51.030;4.696;2023-04-29T10:37:03;17.01;87.50
16505;HTU21D;8365;51.030;4.696;2023-04-29T10:42:41;17.19;84.71
16505;HTU21D;8365;51.030;4.696;2023-04-29T10:45:29;17.39;85.74
16505;HTU21D;8365;51.030;4.696;2023-04-29T10:48:12;17.23;84.08
16505;HTU21D;8365;51.030;4.696;2023-04-29T10:53:18;17.03;86.31
16505;HTU21D;8365;51.030;4.696;2023-04-29T10:55:55;17.13;84.50
16505;HTU21D;8365;51.030;4.696;2023-04-29T10:58:45;17.10;84.29
16505;HTU21D;8365;51.030;4.696;2023-04-29T11:01:16;17.44;83.88
16505;HTU21D;8365;51.030;4.696;2023-04-29T11:03:54;17.47;83.40
16505;HTU21D;8365;51.030;4.696;2023-04-29T11:09:11;17.40;83.65
16505;HTU21D;8365;51.030;4.696;2023-04-29T11:14:49;17.80;83.06
16505;HTU21D;8365;51.030;4.696;2023-04-29T11:17:19;18.04;81.32
16505;HTU21D;8365;51.030;4.696;2023-04-29T11:19:51;18.27;80.49
16505;HTU21D;8365;51.030;4.696;2023-04-29T11:22:26;18.71;78.01
16505;HTU21D;8365;51.030;4.696;2023-04-29T11:25:02;18.44;77.92
16505;HTU21D;8365;51.030;4.696;2023-04-29T11:27:39;18.53;76.02
16505;HTU21D;8365;51.030;4.696;2023-04-29T11:30:14;18.37;74.04
16505;HTU21D;8365;51.030;4.696;2023-04-29T11:32:46;18.37;74.37
16505;HTU21D;8365;51.030;4.696;2023-04-29T11:35:19;18.33;74.42
16505;HTU21D;8365;51.030;4.696;2023-04-29T11:37:52;18.33;74.53
16505;HTU21D;8365;51.030;4.696;2023-04-29T11:40:23;17.77;76.61
16505;HTU21D;8365;51.030;4.696;2023-04-29T11:42:53;17.32;77.77
16505;HTU21D;8365;51.030;4.696;2023-04-29T11:45:25;17.21;79.08
16505;HTU21D;8365;51.030;4.696;2023-04-29T11:48:00;17.52;77.69
16505;HTU21D;8365;51.030;4.696;2023-04-29T11:50:31;17.23;77.60
16505;HTU21D;8365;51.030;4.696;2023-04-29T11:53:03;17.58;77.28
16505;HTU21D;8365;51.030;4.696;2023-04-29T11:55:33;17.66;78.87
16505;HTU21D;8365;51.030;4.696;2023-04-29T11:58:04;18.17;76.94
16505;HTU21D;8365;51.030;4.696;2023-04-29T12:00:34;18.32;75.07
16505;HTU21D;8365;51.030;4.696;2023-04-29T12:03:15;18.23;74.76
16505;HTU21D;8365;51.030;4.696;2023-04-29T12:05:51;18.26;74.79
16505;HTU21D;8365;51.030;4.696;2023-04-29T12:08:25;18.38;73.54
16505;HTU21D;8365;51.030;4.696;2023-04-29T12:10:57;18.28;74.11
16505;HTU21D;8365;51.030;4.696;2023-04-29T12:13:29;17.93;76.16
16505;HTU21D;8365;51.030;4.696;2023-04-29T12:16:00;17.67;75.12
16505;HTU21D;8365;51.030;4.696;2023-04-29T12:18:31;17.83;74.41
16505;HTU21D;8365;51.030;4.696;2023-04-29T12:21:01;17.69;75.45
16505;HTU21D;8365;51.030;4.696;2023-04-29T12:23:34;17.84;73.46
16505;HTU21D;8365;51.030;4.696;2023-04-29T12:26:05;17.83;74.06
16505;HTU21D;8365;51.030;4.696;2023-04-29T12:28:36;18.30;73.76
16505;HTU21D;8365;51.030;4.696;2023-04-29T12:31:10;18.57;72.65
16505;HTU21D;8365;51.030;4.696;2023-04-29T12:33:43;18.66;72.81
16505;HTU21D;8365;51.030;4.696;2023-04-29T12:36:17;17.77;73.28
16505;HTU21D;8365;51.030;4.696;2023-04-29T12:38:48;18.30;72.06
16505;HTU21D;8365;51.030;4.696;2023-04-29T12:41:18;18.44;71.90
16505;HTU21D;8365;51.030;4.696;2023-04-29T12:43:50;18.12;73.63
16505;HTU21D;8365;51.030;4.696;2023-04-29T12:46:20;17.99;76.09
16505;HTU21D;8365;51.030;4.696;2023-04-29T12:48:52;18.27;72.61
16505;HTU21D;8365;51.030;4.696;2023-04-29T12:51:23;17.59;75.03
16505;HTU21D;8365;51.030;4.696;2023-04-29T12:53:53;18.10;73.43
16505;HTU21D;8365;51.030;4.696;2023-04-29T12:56:24;18.40;71.06
16505;HTU21D;8365;51.030;4.696;2023-04-29T12:58:56;18.65;68.82
16505;HTU21D;8365;51.030;4.696;2023-04-29T13:01:26;18.74;68.49
16505;HTU21D;8365;51.030;4.696;2023-04-29T13:03:56;18.69;69.04
16505;HTU21D;8365;51.030;4.696;2023-04-29T13:06:27;18.48;70.21
16505;HTU21D;8365;51.030;4.696;2023-04-29T13:09:00;18.71;67.57
16505;HTU21D;8365;51.030;4.696;2023-04-29T13:11:30;18.77;69.02
16505;HTU21D;8365;51.030;4.696;2023-04-29T13:14:01;18.33;69.85
16505;HTU21D;8365;51.030;4.696;2023-04-29T13:16:32;18.40;70.03
16505;HTU21D;8365;51.030;4.696;2023-04-29T13:19:03;18.18;70.71
16505;HTU21D;8365;51.030;4.696;2023-04-29T13:21:33;18.30;71.74
16505;HTU21D;8365;51.030;4.696;2023-04-29T13:24:07;18.40;71.38
16505;HTU21D;8365;51.030;4.696;2023-04-29T13:26:37;18.64;70.42
16505;HTU21D;8365;51.030;4.696;2023-04-29T13:29:08;18.51;69.44
16505;HTU21D;8365;51.030;4.696;2023-04-29T13:31:39;18.85;67.84
16505;HTU21D;8365;51.030;4.696;2023-04-29T13:34:09;19.35;65.96
16505;HTU21D;8365;51.030;4.696;2023-04-29T13:36:42;19.58;65.52
16505;HTU21D;8365;51.030;4.696;2023-04-29T13:39:12;20.27;63.18
16505;HTU21D;8365;51.030;4.696;2023-04-29T13:41:43;20.27;62.90
16505;HTU21D;8365;51.030;4.696;2023-04-29T13:44:14;19.51;63.85
16505;HTU21D;8365;51.030;4.696;2023-04-29T13:46:45;19.71;63.96
16505;HTU21D;8365;51.030;4.696;2023-04-29T13:49:15;20.04;62.99
16505;HTU21D;8365;51.030;4.696;2023-04-29T13:51:49;20.05;62.61
16505;HTU21D;8365;51.030;4.696;2023-04-29T13:54:21;19.60;63.37
16505;HTU21D;8365;51.030;4.696;2023-04-29T13:56:52;18.62;66.91
16505;HTU21D;8365;51.030;4.696;2023-04-29T13:59:22;19.10;65.68
16505;HTU21D;8365;51.030;4.696;2023-04-29T14:01:53;19.40;64.50
16505;HTU21D;8365;51.030;4.696;2023-04-29T14:04:27;19.43;64.82
16505;HTU21D;8365;51.030;4.696;2023-04-29T14:06:58;19.48;64.37
16505;HTU21D;8365;51.030;4.696;2023-04-29T14:09:28;19.71;63.87
16505;HTU21D;8365;51.030;4.696;2023-04-29T14:11:59;19.79;62.93
16505;HTU21D;8365;51.030;4.696;2023-04-29T14:14:30;19.63;63.82
16505;HTU21D;8365;51.030;4.696;2023-04-29T14:17:00;19.16;66.01
16505;HTU21D;8365;51.030;4.696;2023-04-29T14:19:31;19.14;65.85
16505;HTU21D;8365;51.030;4.696;2023-04-29T14:22:02;19.08;64.43
16505;HTU21D;8365;51.030;4.696;2023-04-29T14:24:33;19.38;63.89
16505;HTU21D;8365;51.030;4.696;2023-04-29T14:27:05;19.48;62.98
16505;HTU21D;8365;51.030;4.696;2023-04-29T14:29:38;19.25;63.66
16505;HTU21D;8365;51.030;4.696;2023-04-29T14:32:09;19.37;63.21
16505;HTU21D;8365;51.030;4.696;2023-04-29T14:34:40;19.45;63.54
16505;HTU21D;8365;51.030;4.696;2023-04-29T14:37:11;19.66;62.13
16505;HTU21D;8365;51.030;4.696;2023-04-29T14:39:42;19.82;60.67
16505;HTU21D;8365;51.030;4.696;2023-04-29T14:42:15;19.67;61.52
16505;HTU21D;8365;51.030;4.696;2023-04-29T14:44:47;19.77;62.34
16505;HTU21D;8365;51.030;4.696;2023-04-29T14:47:18;19.29;64.16
16505;HTU21D;8365;51.030;4.696;2023-04-29T14:49:49;19.48;62.66
16505;HTU21D;8365;51.030;4.696;2023-04-29T14:52:19;19.41;63.11
16505;HTU21D;8365;51.030;4.696;2023-04-29T14:54:49;19.55;62.76
16505;HTU21D;8365;51.030;4.696;2023-04-29T14:57:20;19.08;64.55
16505;HTU21D;8365;51.030;4.696;2023-04-29T14:59:53;19.25;63.50
16505;HTU21D;8365;51.030;4.696;2023-04-29T15:02:24;19.30;62.50
16505;HTU21D;8365;51.030;4.696;2023-04-29T15:04:55;19.29;62.88
16505;HTU21D;8365;51.030;4.696;2023-04-29T15:07:25;19.00;64.80
16505;HTU21D;8365;51.030;4.696;2023-04-29T15:09:56;18.62;65.91
16505;HTU21D;8365;51.030;4.696;2023-04-29T15:12:27;18.93;65.66
16505;HTU21D;8365;51.030;4.696;2023-04-29T15:15:04;18.56;66.64
16505;HTU21D;8365;51.030;4.696;2023-04-29T15:17:34;18.82;66.66
16505;HTU21D;8365;51.030;4.696;2023-04-29T15:20:05;18.71;66.56
16505;HTU21D;8365;51.030;4.696;2023-04-29T15:22:36;18.26;67.51
16505;HTU21D;8365;51.030;4.696;2023-04-29T15:25:07;18.38;66.54
16505;HTU21D;8365;51.030;4.696;2023-04-29T15:27:38;18.30;66.75
16505;HTU21D;8365;51.030;4.696;2023-04-29T15:30:09;18.51;66.73
16505;HTU21D;8365;51.030;4.696;2023-04-29T15:32:40;18.56;67.55
16505;HTU21D;8365;51.030;4.696;2023-04-29T15:35:11;18.61;66.86
16505;HTU21D;8365;51.030;4.696;2023-04-29T15:37:42;18.52;66.85
16505;HTU21D;8365;51.030;4.696;2023-04-29T15:40:15;18.23;67.23
16505;HTU21D;8365;51.030;4.696;2023-04-29T15:42:46;18.08;68.50
16505;HTU21D;8365;51.030;4.696;2023-04-29T15:45:17;18.27;68.71
16505;HTU21D;8365;51.030;4.696;2023-04-29T15:47:50;18.07;68.47
16505;HTU21D;8365;51.030;4.696;2023-04-29T15:50:20;17.79;70.10
16505;HTU21D;8365;51.030;4.696;2023-04-29T15:52:56;18.23;68.46
16505;HTU21D;8365;51.030;4.696;2023-04-29T15:55:28;18.03;68.42
16505;HTU21D;8365;51.030;4.696;2023-04-29T15:57:58;17.94;69.82
16505;HTU21D;8365;51.030;4.696;2023-04-29T16:00:29;17.94;70.44
16505;HTU21D;8365;51.030;4.696;2023-04-29T16:02:59;17.92;70.69
16505;HTU21D;8365;51.030;4.696;2023-04-29T16:05:31;18.12;69.80
16505;HTU21D;8365;51.030;4.696;2023-04-29T16:08:06;18.23;69.74
16505;HTU21D;8365;51.030;4.696;2023-04-29T16:10:36;18.26;68.66
16505;HTU21D;8365;51.030;4.696;2023-04-29T16:13:07;18.20;68.59
16505;HTU21D;8365;51.030;4.696;2023-04-29T16:15:40;18.03;69.13